sensor_id;sensor_type;location;lat;lon;timestamp;pressure;altitude;pressure_sealevel;temperature;humidity
7760;BME280;3924;48.830;9.262;2023-05-08T00:01:19;98838.84;;;15.59;88.27
7760;BME280;3924;48.830;9.262;2023-05-08T00:03:45;98840.44;;;15.60;88.39
7760;BME280;3924;48.830;9.262;2023-05-08T00:06:12;98838.22;;;15.62;88.38
7760;BME280;3924;48.830;9.262;2023-05-08T00:08:38;98836.78;;;15.65;88.23
7760;BME280;3924;48.830;9.262;2023-05-08T00:11:05;98842.75;;;15.67;88.32
7760;BME280;3924;48.830;9.262;2023-05-08T00:13:32;98834.06;;;15.65;88.31
7760;BME280;3924;48.830;9.262;2023-05-08T00:15:58;98831.94;;;15.62;88.51
7760;BME280;3924;48.830;9.262;2023-05-08T00:18:25;98834.16;;;15.59;88.51
7760;BME280;3924;48.830;9.262;2023-05-08T00:20:51;98832.06;;;15.56;89.00
7760;BME280;3924;48.830;9.262;2023-05-08T00:23:18;98831.25;;;15.56;88.64
7760;BME280;3924;48.830;9.262;2023-05-08T00:25:47;98835.13;;;15.55;88.59
7760;BME280;3924;48.830;9.262;2023-05-08T00:28:13;98831.09;;;15.52;88.68
7760;BME280;3924;48.830;9.262;2023-05-08T00:30:40;98833.84;;;15.52;88.69
7760;BME280;3924;48.830;9.262;2023-05-08T00:33:08;98833.31;;;15.50;88.59
7760;BME280;3924;48.830;9.262;2023-05-08T00:35:35;98836.56;;;15.52;88.72
7760;BME280;3924;48.830;9.262;2023-05-08T00:38:01;98834.97;;;15.51;88.69
7760;BME280;3924;48.830;9.262;2023-05-08T00:40:28;98835.59;;;15.48;88.62
7760;BME280;3924;48.830;9.262;2023-05-08T00:42:55;98835.59;;;15.48;88.85
7760;BME280;3924;48.830;9.262;2023-05-08T00:45:21;98835.59;;;15.48;88.85
7760;BME280;3924;48.830;9.262;2023-05-08T00:47:49;98838.78;;;15.50;88.99
7760;BME280;3924;48.830;9.262;2023-05-08T00:50:17;98832.53;;;15.50;88.74
7760;BME280;3924;48.830;9.262;2023-05-08T00:52:44;98831.72;;;15.49;88.56
7760;BME280;3924;48.830;9.262;2023-05-08T00:55:11;98833.66;;;15.49;88.62
7760;BME280;3924;48.830;9.262;2023-05-08T00:57:38;98828.03;;;15.45;88.91
7760;BME280;3924;48.830;9.262;2023-05-08T01:00:05;98833.78;;;15.44;88.88
7760;BME280;3924;48.830;9.262;2023-05-08T01:02:34;98837.16;;;15.41;88.93
7760;BME280;3924;48.830;9.262;2023-05-08T01:05:02;98846.16;;;15.41;88.84
7760;BME280;3924;48.830;9.262;2023-05-08T01:07:29;98847.28;;;15.40;88.68
7760;BME280;3924;48.830;9.262;2023-05-08T01:09:55;98852.75;;;15.40;88.76
7760;BME280;3924;48.830;9.262;2023-05-08T01:12:28;98853.88;;;15.39;89.03
7760;BME280;3924;48.830;9.262;2023-05-08T01:15:12;98848.09;;;15.41;88.98
7760;BME280;3924;48.830;9.262;2023-05-08T01:34:29;98850.50;;;15.42;89.07
7760;BME280;3924;48.830;9.262;2023-05-08T01:37:01;98857.91;;;15.42;89.03
7760;BME280;3924;48.830;9.262;2023-05-08T01:39:38;98863.38;;;15.42;89.03
7760;BME280;3924;48.830;9.262;2023-05-08T01:42:13;98863.22;;;15.38;88.93
7760;BME280;3924;48.830;9.262;2023-05-08T01:44:48;98861.09;;;15.35;89.32
7760;BME280;3924;48.830;9.262;2023-05-08T01:47:19;98865.44;;;15.36;89.23
7760;BME280;3924;48.830;9.262;2023-05-08T01:49:49;98865.44;;;15.36;89.20
7760;BME280;3924;48.830;9.262;2023-05-08T01:52:28;98869.94;;;15.32;89.16
7760;BME280;3924;48.830;9.262;2023-05-08T01:55:06;98865.59;;;15.31;89.47
7760;BME280;3924;48.830;9.262;2023-05-08T01:57:39;98867.19;;;15.32;89.40
7760;BME280;3924;48.830;9.262;2023-05-08T02:00:07;98864.94;;;15.34;89.29
7760;BME280;3924;48.830;9.262;2023-05-08T02:02:34;98864.47;;;15.32;89.33
7760;BME280;3924;48.830;9.262;2023-05-08T02:05:03;98877.00;;;15.33;89.00
7760;BME280;3924;48.830;9.262;2023-05-08T02:07:33;98878.13;;;15.32;89.54
7760;BME280;3924;48.830;9.262;2023-05-08T02:10:04;98877.63;;;15.30;89.29
7760;BME280;3924;48.830;9.262;2023-05-08T02:12:31;98872.81;;;15.27;89.45
7760;BME280;3924;48.830;9.262;2023-05-08T02:14:59;98869.59;;;15.25;89.55
7760;BME280;3924;48.830;9.262;2023-05-08T02:17:27;98872.59;;;15.23;89.46
7760;BME280;3924;48.830;9.262;2023-05-08T02:19:57;98882.72;;;15.23;89.59
7760;BME280;3924;48.830;9.262;2023-05-08T02:22:25;98872.31;;;15.25;89.66
7760;BME280;3924;48.830;9.262;2023-05-08T02:24:53;98868.94;;;15.28;89.77
7760;BME280;3924;48.830;9.262;2023-05-08T02:27:25;98871.34;;;15.29;89.61
7760;BME280;3924;48.830;9.262;2023-05-08T02:29:53;98874.41;;;15.28;89.66
7760;BME280;3924;48.830;9.262;2023-05-08T02:32:24;98874.09;;;15.29;89.81
7760;BME280;3924;48.830;9.262;2023-05-08T02:34:51;98879.75;;;15.33;89.67
7760;BME280;3924;48.830;9.262;2023-05-08T02:37:29;98877.00;;;15.33;89.73
7760;BME280;3924;48.830;9.262;2023-05-08T02:39:58;98876.19;;;15.32;89.60
7760;BME280;3924;48.830;9.262;2023-05-08T02:42:26;98885.53;;;15.31;89.80
7760;BME280;3924;48.830;9.262;2023-05-08T02:44:53;98887.94;;;15.33;89.73
7760;BME280;3924;48.830;9.262;2023-05-08T02:47:25;98875.41;;;15.32;89.76
7760;BME280;3924;48.830;9.262;2023-05-08T02:50:16;98877.63;;;15.30;89.90
7760;BME280;3924;48.830;9.262;2023-05-08T02:52:47;98882.28;;;15.29;89.66
7760;BME280;3924;48.830;9.262;2023-05-08T02:55:47;98886.94;;;15.29;89.85
7760;BME280;3924;48.830;9.262;2023-05-08T02:58:34;98876.66;;;15.26;89.89
7760;BME280;3924;48.830;9.262;2023-05-08T03:01:06;98886.94;;;15.29;89.96
7760;BME280;3924;48.830;9.262;2023-05-08T03:03:42;98883.09;;;15.30;89.76
7760;BME280;3924;48.830;9.262;2023-05-08T03:06:17;98873.28;;;15.29;89.67
7760;BME280;3924;48.830;9.262;2023-05-08T03:08:45;98880.19;;;15.26;89.86
7760;BME280;3924;48.830;9.262;2023-05-08T03:11:15;98870.41;;;15.25;89.82
7760;BME280;3924;48.830;9.262;2023-05-08T03:13:44;98872.31;;;15.25;89.66
7760;BME280;3924;48.830;9.262;2023-05-08T03:16:23;98869.59;;;15.25;89.98
7760;BME280;3924;48.830;9.262;2023-05-08T03:18:58;98867.47;;;15.22;89.85
7760;BME280;3924;48.830;9.262;2023-05-08T03:21:28;98876.31;;;15.19;89.86
7760;BME280;3924;48.830;9.262;2023-05-08T03:23:57;98868.44;;;15.17;89.96
7760;BME280;3924;48.830;9.262;2023-05-08T03:26:25;98869.84;;;15.15;89.98
7760;BME280;3924;48.830;9.262;2023-05-08T03:28:52;98875.31;;;15.15;90.07
7760;BME280;3924;48.830;9.262;2023-05-08T03:31:20;98871.78;;;15.14;89.96
7760;BME280;3924;48.830;9.262;2023-05-08T03:33:49;98879.97;;;15.14;90.08
7760;BME280;3924;48.830;9.262;2023-05-08T03:36:18;98870.97;;;15.14;90.15
7760;BME280;3924;48.830;9.262;2023-05-08T03:38:45;98875.63;;;15.13;90.03
7760;BME280;3924;48.830;9.262;2023-05-08T03:41:12;98872.91;;;15.13;90.05
7760;BME280;3924;48.830;9.262;2023-05-08T03:43:39;98881.41;;;15.12;90.22
7760;BME280;3924;48.830;9.262;2023-05-08T03:46:06;98877.56;;;15.13;90.32
7760;BME280;3924;48.830;9.262;2023-05-08T03:48:35;98874.84;;;15.13;90.06
7760;BME280;3924;48.830;9.262;2023-05-08T03:51:02;98876.09;;;15.07;90.08
7760;BME280;3924;48.830;9.262;2023-05-08T03:53:30;98884.91;;;15.03;90.34
7760;BME280;3924;48.830;9.262;2023-05-08T03:55:58;98879.47;;;15.03;90.36
7760;BME280;3924;48.830;9.262;2023-05-08T03:58:46;98873.81;;;15.00;90.08
7760;BME280;3924;48.830;9.262;2023-05-08T04:01:43;98876.84;;;14.98;90.55
7760;BME280;3924;48.830;9.262;2023-05-08T04:04:19;98869.78;;;14.97;90.25
7760;BME280;3924;48.830;9.262;2023-05-08T04:06:50;98872.50;;;14.97;90.48
7760;BME280;3924;48.830;9.262;2023-05-08T04:12:19;98885.03;;;14.98;90.35
7760;BME280;3924;48.830;9.262;2023-05-08T04:14:55;98886.16;;;14.97;90.32
7760;BME280;3924;48.830;9.262;2023-05-08T04:17:42;98890.50;;;14.98;90.31
7760;BME280;3924;48.830;9.262;2023-05-08T04:20:14;98893.72;;;15.00;90.14
7760;BME280;3924;48.830;9.262;2023-05-08T04:22:42;98893.25;;;14.98;90.15
7760;BME280;3924;48.830;9.262;2023-05-08T04:25:11;98904.47;;;14.97;90.18
7760;BME280;3924;48.830;9.262;2023-05-08T04:27:42;98902.22;;;14.99;90.56
7760;BME280;3924;48.830;9.262;2023-05-08T04:30:09;98906.56;;;15.00;90.53
7760;BME280;3924;48.830;9.262;2023-05-08T04:32:37;98904.63;;;15.00;90.55
7760;BME280;3924;48.830;9.262;2023-05-08T04:35:07;98905.97;;;15.03;90.47
7760;BME280;3924;48.830;9.262;2023-05-08T04:37:34;98912.38;;;15.07;90.31
7760;BME280;3924;48.830;9.262;2023-05-08T04:40:01;98910.94;;;15.10;90.58
7760;BME280;3924;48.830;9.262;2023-05-08T04:42:29;98908.72;;;15.12;90.48
7760;BME280;3924;48.830;9.262;2023-05-08T04:44:56;98916.28;;;15.15;90.45
7760;BME280;3924;48.830;9.262;2023-05-08T04:47:22;98920.31;;;15.17;90.35
7760;BME280;3924;48.830;9.262;2023-05-08T04:49:49;98913.41;;;15.20;90.53
7760;BME280;3924;48.830;9.262;2023-05-08T04:52:16;98920.97;;;15.23;90.47
7760;BME280;3924;48.830;9.262;2023-05-08T04:54:43;98920.16;;;15.22;90.27
7760;BME280;3924;48.830;9.262;2023-05-08T04:57:09;98913.91;;;15.22;90.42
7760;BME280;3924;48.830;9.262;2023-05-08T04:59:36;98922.09;;;15.22;90.49
7760;BME280;3924;48.830;9.262;2023-05-08T05:02:04;98927.56;;;15.22;90.33
7760;BME280;3924;48.830;9.262;2023-05-08T05:04:32;98923.22;;;15.21;90.25
7760;BME280;3924;48.830;9.262;2023-05-08T05:06:58;98922.41;;;15.20;90.44
7760;BME280;3924;48.830;9.262;2023-05-08T05:09:25;98928.69;;;15.21;90.26
7760;BME280;3924;48.830;9.262;2023-05-08T05:11:54;98920.00;;;15.19;90.39
7760;BME280;3924;48.830;9.262;2023-05-08T05:14:23;98932.53;;;15.20;90.55
7760;BME280;3924;48.830;9.262;2023-05-08T05:16:49;98927.88;;;15.20;90.41
7760;BME280;3924;48.830;9.262;2023-05-08T05:19:16;98929.00;;;15.19;90.25
7760;BME280;3924;48.830;9.262;2023-05-08T05:21:44;98933.19;;;15.17;90.65
7760;BME280;3924;48.830;9.262;2023-05-08T05:24:10;98932.06;;;15.18;90.64
7760;BME280;3924;48.830;9.262;2023-05-08T05:26:37;98939.13;;;15.19;90.64
7760;BME280;3924;48.830;9.262;2023-05-08T05:29:03;98933.97;;;15.17;90.32
7760;BME280;3924;48.830;9.262;2023-05-08T05:31:30;98940.38;;;15.13;90.22
7760;BME280;3924;48.830;9.262;2023-05-08T05:33:57;98943.44;;;15.11;90.56
7760;BME280;3924;48.830;9.262;2023-05-08T05:36:24;98940.69;;;15.11;90.57
7760;BME280;3924;48.830;9.262;2023-05-08T05:38:51;98946.66;;;15.13;90.63
7760;BME280;3924;48.830;9.262;2023-05-08T05:41:17;98947.44;;;15.14;90.61
7760;BME280;3924;48.830;9.262;2023-05-08T05:43:44;98947.94;;;15.16;90.58
7760;BME280;3924;48.830;9.262;2023-05-08T05:46:11;98953.91;;;15.18;90.71
7760;BME280;3924;48.830;9.262;2023-05-08T05:48:37;98950.53;;;15.21;90.49
7760;BME280;3924;48.830;9.262;2023-05-08T05:51:04;98952.94;;;15.22;90.37
7760;BME280;3924;48.830;9.262;2023-05-08T05:53:31;98945.28;;;15.24;90.49
7760;BME280;3924;48.830;9.262;2023-05-08T05:55:58;98960.53;;;15.25;90.40
7760;BME280;3924;48.830;9.262;2023-05-08T05:58:24;98962.47;;;15.25;90.53
7760;BME280;3924;48.830;9.262;2023-05-08T06:00:51;98966.31;;;15.24;90.31
7760;BME280;3924;48.830;9.262;2023-05-08T06:03:17;98960.84;;;15.24;90.49
7760;BME280;3924;48.830;9.262;2023-05-08T06:05:45;98962.63;;;15.28;90.56
7760;BME280;3924;48.830;9.262;2023-05-08T06:08:12;98958.78;;;15.29;90.69
7760;BME280;3924;48.830;9.262;2023-05-08T06:10:39;98956.56;;;15.31;90.88
7760;BME280;3924;48.830;9.262;2023-05-08T06:13:05;98961.38;;;15.35;90.52
7760;BME280;3924;48.830;9.262;2023-05-08T06:15:32;98958.97;;;15.33;90.32
7760;BME280;3924;48.830;9.262;2023-05-08T06:17:59;98958.97;;;15.33;90.51
7760;BME280;3924;48.830;9.262;2023-05-08T06:20:26;98968.28;;;15.32;90.46
7760;BME280;3924;48.830;9.262;2023-05-08T06:22:52;98954.09;;;15.30;90.34
7760;BME280;3924;48.830;9.262;2023-05-08T06:25:19;98966.47;;;15.27;90.39
7760;BME280;3924;48.830;9.262;2023-05-08T06:27:47;98968.28;;;15.32;90.89
7760;BME280;3924;48.830;9.262;2023-05-08T06:30:14;98962.97;;;15.36;90.69
7760;BME280;3924;48.830;9.262;2023-05-08T06:32:40;98963.97;;;15.40;90.44
7760;BME280;3924;48.830;9.262;2023-05-08T06:35:07;98966.88;;;15.43;90.51
7760;BME280;3924;48.830;9.262;2023-05-08T06:37:34;98964.50;;;15.50;90.62
7760;BME280;3924;48.830;9.262;2023-05-08T06:40:01;98963.88;;;15.53;90.23
7760;BME280;3924;48.830;9.262;2023-05-08T06:42:38;98968.69;;;15.56;90.49
7760;BME280;3924;48.830;9.262;2023-05-08T06:45:05;98969.09;;;15.64;90.29
7760;BME280;3924;48.830;9.262;2023-05-08T06:47:32;98974.09;;;15.70;90.30
7760;BME280;3924;48.830;9.262;2023-05-08T06:49:59;98970.09;;;15.76;90.06
7760;BME280;3924;48.830;9.262;2023-05-08T06:52:26;98974.63;;;15.81;90.01
7760;BME280;3924;48.830;9.262;2023-05-08T06:54:52;98968.50;;;15.84;90.18
7760;BME280;3924;48.830;9.262;2023-05-08T06:57:19;98968.03;;;15.82;90.01
7760;BME280;3924;48.830;9.262;2023-05-08T06:59:46;98971.72;;;15.77;89.97
7760;BME280;3924;48.830;9.262;2023-05-08T07:02:12;98970.44;;;15.75;90.02
7760;BME280;3924;48.830;9.262;2023-05-08T07:04:43;98974.28;;;15.74;90.27
7760;BME280;3924;48.830;9.262;2023-05-08T07:07:09;98976.69;;;15.75;90.06
7760;BME280;3924;48.830;9.262;2023-05-08T07:09:36;98974.75;;;15.76;90.00
7760;BME280;3924;48.830;9.262;2023-05-08T07:12:03;98979.91;;;15.77;90.26
7760;BME280;3924;48.830;9.262;2023-05-08T07:14:30;98973.63;;;15.77;89.88
7760;BME280;3924;48.830;9.262;2023-05-08T07:16:56;98974.44;;;15.77;90.09
7760;BME280;3924;48.830;9.262;2023-05-08T07:19:24;98982.84;;;15.81;90.06
7760;BME280;3924;48.830;9.262;2023-05-08T07:21:50;98979.97;;;15.86;89.96
7760;BME280;3924;48.830;9.262;2023-05-08T07:24:17;98985.25;;;15.91;89.76
7760;BME280;3924;48.830;9.262;2023-05-08T07:26:43;98977.41;;;15.98;89.97
7760;BME280;3924;48.830;9.262;2023-05-08T07:29:10;98980.47;;;16.05;89.66
7760;BME280;3924;48.830;9.262;2023-05-08T07:31:38;98980.81;;;16.12;89.63
7760;BME280;3924;48.830;9.262;2023-05-08T07:34:06;98985.66;;;16.16;89.44
7760;BME280;3924;48.830;9.262;2023-05-08T07:36:32;98989.06;;;16.21;89.56
7760;BME280;3924;48.830;9.262;2023-05-08T07:38:59;98979.25;;;16.29;89.24
7760;BME280;3924;48.830;9.262;2023-05-08T07:41:26;98990.06;;;16.34;89.09
7760;BME280;3924;48.830;9.262;2023-05-08T07:43:52;98989.41;;;16.37;89.04
7760;BME280;3924;48.830;9.262;2023-05-08T07:46:19;98987.00;;;16.44;88.94
7760;BME280;3924;48.830;9.262;2023-05-08T07:48:47;98987.50;;;16.55;88.82
7760;BME280;3924;48.830;9.262;2023-05-08T07:51:14;98987.03;;;16.61;88.96
7760;BME280;3924;48.830;9.262;2023-05-08T07:53:41;98988.97;;;16.70;88.73
7760;BME280;3924;48.830;9.262;2023-05-08T07:56:07;98993.31;;;16.71;88.50
7760;BME280;3924;48.830;9.262;2023-05-08T07:58:34;98990.91;;;16.78;88.31
7760;BME280;3924;48.830;9.262;2023-05-08T08:01:00;98988.97;;;16.87;88.18
7760;BME280;3924;48.830;9.262;2023-05-08T08:03:27;98994.75;;;16.94;88.30
7760;BME280;3924;48.830;9.262;2023-05-08T08:05:54;98996.53;;;16.99;88.17
7760;BME280;3924;48.830;9.262;2023-05-08T08:08:21;98994.91;;;17.06;87.86
7760;BME280;3924;48.830;9.262;2023-05-08T08:10:47;98992.47;;;17.13;87.97
7760;BME280;3924;48.830;9.262;2023-05-08T08:13:14;99002.31;;;17.23;87.68
7760;BME280;3924;48.830;9.262;2023-05-08T08:15:42;98990.53;;;17.31;87.47
7760;BME280;3924;48.830;9.262;2023-05-08T08:18:09;98992.44;;;17.39;87.36
7760;BME280;3924;48.830;9.262;2023-05-08T08:20:36;99003.72;;;17.38;87.26
7760;BME280;3924;48.830;9.262;2023-05-08T08:23:02;98994.50;;;17.42;87.54
7760;BME280;3924;48.830;9.262;2023-05-08T08:25:29;98999.47;;;17.49;87.11
7760;BME280;3924;48.830;9.262;2023-05-08T08:27:56;99004.31;;;17.52;86.84
7760;BME280;3924;48.830;9.262;2023-05-08T08:30:23;99003.53;;;17.43;86.98
7760;BME280;3924;48.830;9.262;2023-05-08T08:32:50;99004.03;;;17.45;86.90
7760;BME280;3924;48.830;9.262;2023-05-08T08:35:16;99001.91;;;17.50;86.86
7760;BME280;3924;48.830;9.262;2023-05-08T08:37:43;98999.78;;;17.56;86.67
7760;BME280;3924;48.830;9.262;2023-05-08T08:40:10;99003.81;;;17.59;86.40
7760;BME280;3924;48.830;9.262;2023-05-08T08:42:37;99000.28;;;17.58;86.61
7760;BME280;3924;48.830;9.262;2023-05-08T08:45:03;98996.56;;;17.71;86.26
7760;BME280;3924;48.830;9.262;2023-05-08T08:47:34;98999.09;;;17.76;86.22
7760;BME280;3924;48.830;9.262;2023-05-08T08:50:07;98998.44;;;17.80;85.90
7760;BME280;3924;48.830;9.262;2023-05-08T08:52:55;98997.78;;;17.83;86.04
7760;BME280;3924;48.830;9.262;2023-05-08T08:55:26;99015.84;;;17.84;86.05
7760;BME280;3924;48.830;9.262;2023-05-08T08:58:20;99002.63;;;17.86;85.94
7760;BME280;3924;48.830;9.262;2023-05-08T09:00:51;99015.03;;;17.92;85.67
7760;BME280;3924;48.830;9.262;2023-05-08T09:03:20;99004.06;;;17.83;85.67
7760;BME280;3924;48.830;9.262;2023-05-08T09:05:47;99009.41;;;17.80;85.72
7760;BME280;3924;48.830;9.262;2023-05-08T09:08:19;99011.19;;;17.75;85.66
7760;BME280;3924;48.830;9.262;2023-05-08T09:10:46;99015.44;;;17.64;85.85
7760;BME280;3924;48.830;9.262;2023-05-08T09:13:13;99012.84;;;17.59;85.81
7760;BME280;3924;48.830;9.262;2023-05-08T09:15:41;99005.97;;;17.44;86.00
7760;BME280;3924;48.830;9.262;2023-05-08T09:18:07;99013.22;;;17.40;85.79
7760;BME280;3924;48.830;9.262;2023-05-08T09:20:34;99012.13;;;17.33;85.84
7760;BME280;3924;48.830;9.262;2023-05-08T09:23:01;99014.38;;;17.31;85.76
7760;BME280;3924;48.830;9.262;2023-05-08T09:25:44;99017.28;;;17.26;85.99
7760;BME280;3924;48.830;9.262;2023-05-08T09:28:22;99011.81;;;17.26;85.96
7760;BME280;3924;48.830;9.262;2023-05-08T09:30:52;99009.03;;;17.34;86.01
7760;BME280;3924;48.830;9.262;2023-05-08T09:33:21;99009.97;;;17.47;85.64
7760;BME280;3924;48.830;9.262;2023-05-08T09:35:48;99005.13;;;17.53;85.63
7760;BME280;3924;48.830;9.262;2023-05-08T09:38:37;99010.75;;;17.56;85.59
7760;BME280;3924;48.830;9.262;2023-05-08T09:41:08;99004.13;;;17.66;85.17
7760;BME280;3924;48.830;9.262;2023-05-08T09:43:36;99010.06;;;17.76;84.97
7760;BME280;3924;48.830;9.262;2023-05-08T09:48:52;99001.66;;;17.82;84.54
7760;BME280;3924;48.830;9.262;2023-05-08T09:51:19;99015.56;;;17.76;84.71
7760;BME280;3924;48.830;9.262;2023-05-08T09:53:49;99008.97;;;17.77;84.69
7760;BME280;3924;48.830;9.262;2023-05-08T09:56:36;99014.25;;;17.83;84.65
7760;BME280;3924;48.830;9.262;2023-05-08T09:59:04;99014.09;;;17.79;84.52
7760;BME280;3924;48.830;9.262;2023-05-08T10:01:47;99017.47;;;17.85;84.52
7760;BME280;3924;48.830;9.262;2023-05-08T10:04:16;99010.66;;;17.91;84.59
7760;BME280;3924;48.830;9.262;2023-05-08T10:06:43;99017.09;;;17.95;84.06
7760;BME280;3924;48.830;9.262;2023-05-08T10:09:21;99018.28;;;17.85;84.38
7760;BME280;3924;48.830;9.262;2023-05-08T10:11:49;99019.09;;;17.86;84.31
7760;BME280;3924;48.830;9.262;2023-05-08T10:14:22;99015.19;;;17.87;84.12
7760;BME280;3924;48.830;9.262;2023-05-08T10:16:53;99018.44;;;17.80;84.31
7760;BME280;3924;48.830;9.262;2023-05-08T10:19:22;99016.19;;;17.82;84.17
7760;BME280;3924;48.830;9.262;2023-05-08T10:21:50;99022.13;;;17.84;84.08
7760;BME280;3924;48.830;9.262;2023-05-08T10:24:25;99021.50;;;17.87;83.80
7760;BME280;3924;48.830;9.262;2023-05-08T10:27:08;99010.34;;;17.84;83.83
7760;BME280;3924;48.830;9.262;2023-05-08T10:29:46;99014.91;;;17.80;84.00
7760;BME280;3924;48.830;9.262;2023-05-08T10:32:19;99011.81;;;17.81;83.95
7760;BME280;3924;48.830;9.262;2023-05-08T10:34:50;99015.84;;;17.84;83.86
7760;BME280;3924;48.830;9.262;2023-05-08T10:37:17;99014.53;;;17.90;83.81
7760;BME280;3924;48.830;9.262;2023-05-08T10:39:45;99015.50;;;17.94;83.46
7760;BME280;3924;48.830;9.262;2023-05-08T10:42:13;99012.56;;;17.99;83.70
7760;BME280;3924;48.830;9.262;2023-05-08T10:44:41;99006.69;;;18.09;83.35
7760;BME280;3924;48.830;9.262;2023-05-08T10:47:32;99011.00;;;18.19;83.13
7760;BME280;3924;48.830;9.262;2023-05-08T10:50:07;99015.50;;;18.23;82.72
7760;BME280;3924;48.830;9.262;2023-05-08T10:52:46;99016.16;;;18.20;82.87
7760;BME280;3924;48.830;9.262;2023-05-08T10:55:29;99006.41;;;18.02;83.14
7760;BME280;3924;48.830;9.262;2023-05-08T11:03:19;99001.88;;;18.06;83.05
7760;BME280;3924;48.830;9.262;2023-05-08T11:05:59;99008.16;;;18.07;82.99
7760;BME280;3924;48.830;9.262;2023-05-08T11:08:27;99009.63;;;18.04;83.16
7760;BME280;3924;48.830;9.262;2023-05-08T11:11:01;99010.94;;;17.98;83.17
7760;BME280;3924;48.830;9.262;2023-05-08T11:13:39;99012.06;;;17.97;83.09
7760;BME280;3924;48.830;9.262;2023-05-08T11:16:06;99001.44;;;17.95;83.12
7760;BME280;3924;48.830;9.262;2023-05-08T11:18:33;99009.34;;;17.97;83.22
7760;BME280;3924;48.830;9.262;2023-05-08T11:21:15;99010.94;;;17.98;83.25
7760;BME280;3924;48.830;9.262;2023-05-08T11:23:55;99005.75;;;18.05;82.92
7760;BME280;3924;48.830;9.262;2023-05-08T11:26:37;99006.97;;;18.16;82.81
7760;BME280;3924;48.830;9.262;2023-05-08T11:29:15;99003.66;;;18.31;82.41
7760;BME280;3924;48.830;9.262;2023-05-08T11:31:49;98996.72;;;18.55;81.81
7760;BME280;3924;48.830;9.262;2023-05-08T11:37:08;98996.41;;;19.31;80.80
7760;BME280;3924;48.830;9.262;2023-05-08T11:39:35;98987.56;;;19.71;80.09
7760;BME280;3924;48.830;9.262;2023-05-08T11:47:41;98989.59;;;20.60;78.51
7760;BME280;3924;48.830;9.262;2023-05-08T11:50:09;98982.72;;;20.66;78.27
7760;BME280;3924;48.830;9.262;2023-05-08T11:52:39;98978.06;;;20.82;77.79
7760;BME280;3924;48.830;9.262;2023-05-08T11:55:09;98974.50;;;21.10;77.47
7760;BME280;3924;48.830;9.262;2023-05-08T11:57:36;98979.56;;;21.36;76.49
7760;BME280;3924;48.830;9.262;2023-05-08T12:00:06;98972.97;;;21.40;76.35
7760;BME280;3924;48.830;9.262;2023-05-08T12:02:42;98977.06;;;21.46;76.30
7760;BME280;3924;48.830;9.262;2023-05-08T12:05:12;98972.44;;;21.50;76.03
7760;BME280;3924;48.830;9.262;2023-05-08T12:07:44;98973.25;;;21.67;75.59
7760;BME280;3924;48.830;9.262;2023-05-08T12:10:14;98978.69;;;21.79;75.07
7760;BME280;3924;48.830;9.262;2023-05-08T12:12:43;98987.66;;;22.07;74.50
7760;BME280;3924;48.830;9.262;2023-05-08T12:15:12;98976.97;;;22.22;74.34
7760;BME280;3924;48.830;9.262;2023-05-08T12:17:40;98974.69;;;22.43;73.71
7760;BME280;3924;48.830;9.262;2023-05-08T12:20:13;98978.50;;;22.54;73.49
7760;BME280;3924;48.830;9.262;2023-05-08T12:22:49;98976.97;;;22.76;72.82
7760;BME280;3924;48.830;9.262;2023-05-08T12:25:17;98977.88;;;22.80;72.76
7760;BME280;3924;48.830;9.262;2023-05-08T12:27:44;98973.94;;;22.81;72.49
7760;BME280;3924;48.830;9.262;2023-05-08T12:30:13;98969.38;;;23.08;71.57
7760;BME280;3924;48.830;9.262;2023-05-08T12:32:42;98962.22;;;23.27;71.03
7760;BME280;3924;48.830;9.262;2023-05-08T12:35:10;98964.66;;;23.32;70.88
7760;BME280;3924;48.830;9.262;2023-05-08T12:37:37;98965.44;;;23.09;70.88
7760;BME280;3924;48.830;9.262;2023-05-08T12:40:05;98952.94;;;22.96;71.03
7760;BME280;3924;48.830;9.262;2023-05-08T12:42:48;98968.63;;;22.73;71.50
7760;BME280;3924;48.830;9.262;2023-05-08T12:45:23;98964.41;;;22.98;70.91
7760;BME280;3924;48.830;9.262;2023-05-08T12:47:51;98964.19;;;22.68;71.39
7760;BME280;3924;48.830;9.262;2023-05-08T12:50:20;98959.53;;;22.37;71.33
7760;BME280;3924;48.830;9.262;2023-05-08T12:52:47;98959.59;;;22.05;72.15
7760;BME280;3924;48.830;9.262;2023-05-08T12:55:27;98964.44;;;21.77;72.53
7760;BME280;3924;48.830;9.262;2023-05-08T13:00:42;98962.75;;;21.72;72.56
7760;BME280;3924;48.830;9.262;2023-05-08T13:03:11;98971.66;;;21.50;72.70
7760;BME280;3924;48.830;9.262;2023-05-08T13:05:43;98969.22;;;21.04;73.23
7760;BME280;3924;48.830;9.262;2023-05-08T13:08:10;98962.25;;;20.67;74.09
7760;BME280;3924;48.830;9.262;2023-05-08T13:10:52;98961.28;;;20.35;74.75
7760;BME280;3924;48.830;9.262;2023-05-08T13:13:21;98960.03;;;20.08;74.98
7760;BME280;3924;48.830;9.262;2023-05-08T13:15:49;98955.91;;;19.89;75.55
7760;BME280;3924;48.830;9.262;2023-05-08T13:18:17;98961.66;;;19.72;75.87
7760;BME280;3924;48.830;9.262;2023-05-08T13:20:44;98949.38;;;19.57;75.57
7760;BME280;3924;48.830;9.262;2023-05-08T13:23:12;98956.78;;;19.45;76.05
7760;BME280;3924;48.830;9.262;2023-05-08T13:25:41;98957.34;;;19.38;76.13
7760;BME280;3924;48.830;9.262;2023-05-08T13:28:08;98962.03;;;19.37;76.13
7760;BME280;3924;48.830;9.262;2023-05-08T13:30:35;98961.91;;;19.34;75.96
7760;BME280;3924;48.830;9.262;2023-05-08T13:33:03;98966.38;;;19.26;76.31
7760;BME280;3924;48.830;9.262;2023-05-08T13:35:31;98959.81;;;19.19;76.20
7760;BME280;3924;48.830;9.262;2023-05-08T13:37:58;98950.31;;;19.16;76.12
7760;BME280;3924;48.830;9.262;2023-05-08T13:40:25;98958.31;;;19.09;76.41
7760;BME280;3924;48.830;9.262;2023-05-08T13:42:52;98952.00;;;19.08;76.22
7760;BME280;3924;48.830;9.262;2023-05-08T13:45:19;98952.31;;;19.07;76.12
7760;BME280;3924;48.830;9.262;2023-05-08T13:47:46;98949.13;;;19.05;76.16
7760;BME280;3924;48.830;9.262;2023-05-08T13:50:15;98940.44;;;19.03;76.12
7760;BME280;3924;48.830;9.262;2023-05-08T13:52:42;98934.44;;;19.01;75.84
7760;BME280;3924;48.830;9.262;2023-05-08T13:55:10;98931.25;;;18.99;75.84
7760;BME280;3924;48.830;9.262;2023-05-08T13:57:38;98930.19;;;18.91;75.99
7760;BME280;3924;48.830;9.262;2023-05-08T14:00:06;98930.53;;;18.90;76.00
7760;BME280;3924;48.830;9.262;2023-05-08T14:02:35;98933.63;;;18.88;75.80
7760;BME280;3924;48.830;9.262;2023-05-08T14:05:04;98938.44;;;18.91;75.84
7760;BME280;3924;48.830;9.262;2023-05-08T14:07:32;98937.63;;;18.91;75.72
7760;BME280;3924;48.830;9.262;2023-05-08T14:09:59;98939.22;;;18.92;75.71
7760;BME280;3924;48.830;9.262;2023-05-08T14:12:26;98938.44;;;18.91;75.70
7760;BME280;3924;48.830;9.262;2023-05-08T14:14:52;98944.72;;;18.92;75.49